createdAt,value
2022-08-05T00:02:13.287Z,600
2022-08-05T00:07:59.492Z,580
2022-08-05T00:13:19.748Z,867
2022-08-05T00:18:55.843Z,723
2022-08-05T00:24:16.052Z,612
2022-08-05T00:29:49.400Z,592
2022-08-05T00:35:08.430Z,657
2022-08-05T00:40:29.327Z,552
2022-08-05T00:45:48.141Z,508
2022-08-05T00:51:08.011Z,498
2022-08-05T00:57:11.177Z,532
2022-08-05T01:02:29.671Z,537
2022-08-05T01:08:30.011Z,552
2022-08-05T01:14:08.673Z,573
2022-08-05T01:19:30.092Z,590
2022-08-05T01:25:21.185Z,610
2022-08-05T01:30:39.661Z,619
2022-08-05T01:36:16.135Z,625
2022-08-05T01:41:38.491Z,648
2022-08-05T01:47:02.605Z,682
2022-08-05T01:52:27.123Z,689
2022-08-05T01:58:09.223Z,655
2022-08-05T02:03:58.610Z,667
2022-08-05T02:09:17.053Z,636
2022-08-05T02:14:40.343Z,576
2022-08-05T02:20:05.570Z,542
2022-08-05T02:25:24.071Z,528
2022-08-05T02:31:07.483Z,523
2022-08-05T02:36:32.697Z,524
2022-08-05T02:41:58.328Z,521
2022-08-05T02:47:19.819Z,530
2022-08-05T02:52:39.424Z,547
2022-08-05T02:58:08.992Z,567
2022-08-05T03:03:33.610Z,555
2022-08-05T03:09:36.612Z,540
2022-08-05T03:15:12.314Z,528
2022-08-05T03:20:30.694Z,540
2022-08-05T03:26:04.195Z,530
2022-08-05T03:31:56.413Z,524
2022-08-05T03:37:18.825Z,520
2022-08-05T03:42:41.498Z,513
2022-08-05T03:48:10.567Z,505
2022-08-05T03:55:07.068Z,502
2022-08-05T04:01:45.504Z,502
2022-08-05T04:07:07.716Z,505
2022-08-05T04:12:26.486Z,507
2022-08-05T04:17:55.939Z,520
2022-08-05T04:23:18.730Z,540
2022-08-05T04:29:36.850Z,609
2022-08-05T04:34:57.580Z,553
2022-08-05T04:40:17.091Z,531
2022-08-05T04:45:48.716Z,523
2022-08-05T04:51:13.990Z,680
2022-08-05T04:56:34.118Z,594
2022-08-05T05:02:08.435Z,553
2022-08-05T05:08:01.907Z,524
2022-08-05T05:13:20.815Z,526
2022-08-05T05:18:39.361Z,513
2022-08-05T05:24:42.958Z,505
2022-08-05T05:30:33.758Z,513
2022-08-05T05:35:52.493Z,509
2022-08-05T05:41:12.248Z,508
2022-08-05T05:46:36.754Z,511
2022-08-05T05:52:05.768Z,514
2022-08-05T05:57:26.346Z,517
2022-08-05T06:03:28.407Z,517
2022-08-05T06:09:25.480Z,522
2022-08-05T06:15:24.579Z,527
2022-08-05T06:21:55.162Z,539
2022-08-05T06:26:58.046Z,541
2022-08-05T06:32:17.312Z,530
2022-08-05T06:37:57.209Z,509
2022-08-05T06:43:51.916Z,482
2022-08-05T06:49:18.881Z,468
2022-08-05T06:55:19.094Z,461
2022-08-05T07:00:41.087Z,458
2022-08-05T07:05:59.891Z,460
2022-08-05T07:11:32.687Z,515
2022-08-05T07:17:58.106Z,534
2022-08-05T07:23:35.214Z,534
2022-08-05T07:29:09.919Z,501
2022-08-05T07:34:33.085Z,459
2022-08-05T07:40:03.914Z,453
2022-08-05T07:45:56.921Z,473
2022-08-05T07:51:23.245Z,517
2022-08-05T07:57:15.048Z,527
2022-08-05T08:03:21.665Z,509
2022-08-05T08:08:40.196Z,493
2022-08-05T08:14:00.559Z,483
2022-08-05T08:20:10.620Z,476
2022-08-05T08:26:29.846Z,480
2022-08-05T08:31:33.214Z,483
2022-08-05T08:36:56.698Z,470
2022-08-05T08:42:32.669Z,452
2022-08-05T08:48:13.045Z,449
2022-08-05T08:56:03.342Z,464
2022-08-05T09:01:24.703Z,483
2022-08-05T09:06:43.149Z,497
2022-08-05T09:12:19.901Z,503
2022-08-05T09:17:48.537Z,484
2022-08-05T09:23:18.390Z,477
2022-08-05T09:28:41.034Z,455
2022-08-05T09:33:59.988Z,440
2022-08-05T09:39:22.112Z,425
2022-08-05T09:44:57.565Z,411
2022-08-05T09:51:29.796Z,416
2022-08-05T09:56:54.435Z,412
2022-08-05T10:02:20.464Z,400
2022-08-05T10:08:11.314Z,397
2022-08-05T10:14:00.232Z,417
2022-08-05T10:19:23.416Z,429
2022-08-05T10:25:28.487Z,434
2022-08-05T10:32:46.974Z,435
2022-08-05T10:38:20.752Z,443
2022-08-05T10:43:46.328Z,447
2022-08-05T10:49:09.949Z,461
2022-08-05T10:54:47.038Z,474
2022-08-05T11:00:19.980Z,482
2022-08-05T11:05:40.817Z,495
2022-08-05T11:11:12.019Z,503
2022-08-05T11:16:48.041Z,519
2022-08-05T11:23:21.388Z,533
2022-08-05T11:29:21.902Z,539
2022-08-05T11:34:47.275Z,543
2022-08-05T11:40:14.485Z,557
2022-08-05T11:46:15.893Z,562
2022-08-05T11:51:52.834Z,573
2022-08-05T11:57:24.629Z,589
2022-08-05T12:02:47.988Z,601
2022-08-05T12:08:11.398Z,638
2022-08-05T12:13:48.266Z,666
2022-08-05T12:19:08.148Z,673
2022-08-05T12:25:42.819Z,690
2022-08-05T12:31:02.156Z,708
2022-08-05T12:36:21.307Z,734
2022-08-05T12:41:44.114Z,748
2022-08-05T12:47:02.592Z,762
2022-08-05T12:52:24.071Z,774
2022-08-05T12:57:44.966Z,789
2022-08-05T13:04:21.267Z,810
2022-08-05T13:09:45.099Z,831
2022-08-05T13:15:16.519Z,856
2022-08-05T13:21:09.020Z,870
2022-08-05T13:26:31.278Z,891
2022-08-05T13:32:03.511Z,900
2022-08-05T13:37:34.710Z,913
2022-08-05T13:42:55.574Z,944
2022-08-05T13:48:56.799Z,961
2022-08-05T13:54:25.039Z,972
2022-08-05T13:59:55.537Z,980
2022-08-05T14:05:29.629Z,991
2022-08-05T14:12:00.569Z,1007
2022-08-05T14:17:50.897Z,1014
2022-08-05T14:23:24.964Z,1017
2022-08-05T14:28:54.429Z,1035
2022-08-05T14:34:12.893Z,1076
2022-08-05T14:39:48.515Z,1111
2022-08-05T14:45:16.920Z,1157
2022-08-05T14:50:39.875Z,1234
2022-08-05T14:56:00.421Z,1260
2022-08-05T15:01:22.720Z,1263
2022-08-05T15:07:07.718Z,1264
2022-08-05T15:12:26.917Z,1261
2022-08-05T15:18:21.299Z,1289
2022-08-05T15:23:40.641Z,1303
2022-08-05T15:28:58.508Z,1294
2022-08-05T15:34:32.674Z,1240
2022-08-05T15:40:42.834Z,1138
2022-08-05T15:47:14.679Z,990
2022-08-05T15:52:54.124Z,907
2022-08-05T15:58:21.035Z,812
2022-08-05T16:03:41.695Z,775
2022-08-05T16:09:00.199Z,720
2022-08-05T16:14:20.175Z,679
2022-08-05T16:20:03.989Z,658
2022-08-05T16:25:32.127Z,626
2022-08-05T16:30:53.405Z,609
2022-08-05T16:36:12.456Z,591
2022-08-05T16:42:13.239Z,575
2022-08-05T16:47:53.347Z,571
2022-08-05T16:53:22.675Z,572
2022-08-05T16:59:49.545Z,566
2022-08-05T17:05:28.413Z,574
2022-08-05T17:10:46.962Z,564
2022-08-05T17:16:26.662Z,552
2022-08-05T17:21:55.079Z,524
2022-08-05T17:27:16.136Z,522
2022-08-05T17:32:35.345Z,519
2022-08-05T17:37:54.255Z,536
2022-08-05T17:43:46.627Z,505
2022-08-05T17:48:57.893Z,509
2022-08-05T17:54:16.688Z,528
2022-08-05T17:59:41.718Z,505
2022-08-05T18:05:21.141Z,463
2022-08-05T18:10:39.602Z,435
2022-08-05T18:15:59.340Z,421
2022-08-05T18:21:21.298Z,429
2022-08-05T18:27:35.398Z,453
2022-08-05T18:33:00.555Z,463
2022-08-05T18:38:25.843Z,435
2022-08-05T18:43:48.907Z,426
2022-08-05T18:49:09.060Z,428
2022-08-05T18:54:31.141Z,462
2022-08-05T19:00:02.067Z,494
2022-08-05T19:06:06.659Z,524
2022-08-05T19:12:02.317Z,544
2022-08-05T19:17:21.092Z,570
2022-08-05T19:24:04.771Z,576
2022-08-05T19:29:35.682Z,560
2022-08-05T19:34:56.705Z,574
2022-08-05T19:40:01.900Z,584
2022-08-05T19:45:28.039Z,592
2022-08-05T19:50:55.199Z,538
2022-08-05T19:56:29.574Z,508
2022-08-05T20:01:52.816Z,569
2022-08-05T20:07:13.138Z,523
2022-08-05T20:12:31.729Z,524
2022-08-05T20:17:51.923Z,510
2022-08-05T20:23:13.135Z,559
2022-08-05T20:28:32.957Z,581
2022-08-05T20:33:54.232Z,541
2022-08-05T20:39:13.785Z,559
2022-08-05T20:44:37.880Z,589
2022-08-05T20:49:58.238Z,611
2022-08-05T20:55:55.838Z,650
2022-08-05T21:01:11.930Z,679
2022-08-05T21:06:32.370Z,668
2022-08-05T21:12:07.890Z,665
2022-08-05T21:17:34.519Z,678
2022-08-05T21:22:54.760Z,704
2022-08-05T21:28:13.876Z,720
2022-08-05T21:33:49.348Z,714
2022-08-05T21:39:14.237Z,698
2022-08-05T21:44:46.112Z,723
2022-08-05T21:50:05.323Z,719
2022-08-05T21:55:43.293Z,691
2022-08-05T22:01:35.378Z,687
2022-08-05T22:06:54.414Z,690
2022-08-05T22:12:15.474Z,688
2022-08-05T22:17:48.601Z,694
2022-08-05T22:23:21.270Z,691
2022-08-05T22:28:40.374Z,679
2022-08-05T22:34:01.066Z,666
2022-08-05T22:39:22.435Z,686
2022-08-05T22:44:41.058Z,697
2022-08-05T22:50:18.857Z,691
2022-08-05T22:55:56.291Z,713
2022-08-05T23:01:17.778Z,915
2022-08-05T23:06:38.931Z,1167
2022-08-05T23:12:00.062Z,746
2022-08-05T23:17:24.125Z,685
2022-08-05T23:23:19.514Z,655
2022-08-05T23:28:43.126Z,626
2022-08-05T23:34:03.399Z,625
2022-08-05T23:39:32.351Z,600
2022-08-05T23:45:14.018Z,603
2022-08-05T23:50:34.058Z,595
2022-08-05T23:55:52.302Z,605
